Latest Weather Observations for Pallamana

IDS60801

Issued at 3:52 pm CDT Sunday 29 November 2020 (issued every 10 minutes, with the page automatically refreshed every 10 minutes)

About weather observations | Map of weather stations | Latest weather observations for SA | Other Formats
Station Details ID: 024584 Name: PALLAMANA AERODROME Lat: -35.06 Lon: 139.23 Height: 45.0 m
Data from the previous 72 hours. | See also: Recent months at Pallamana
Date/Time
CDT
Temp
°C
App
Temp
°C
Dew
Point
°C
Rel
Hum
%
Delta-T
°C
Wind Press
QNH
hPa
Press
MSL
hPa
Rain since
9am
mm
Dir  Spd
km/h
Gust
km/h
Spd
kts
Gust
kts
29/03:30pm 21.6 16.1 5.9 36 7.9 S 24 35 13 19 1014.3 1014.2 0.2
29/03:00pm 21.7 14.9 5.2 34 8.2 S 30 43 16 23 1014.3 1014.2 0.2
29/02:30pm 21.7 16.1 5.5 34 8.1 S 24 41 13 22 1014.3 1014.2 0.2
29/02:00pm 21.9 16.4 5.8 35 8.1 SSW 24 39 13 21 1014.5 1014.4 0.2
29/01:30pm 21.7 16.2 6.0 36 7.9 S 24 35 13 19 1014.6 1014.5 0.2
29/01:00pm 21.4 15.8 5.6 35 7.9 SSW 24 39 13 21 1014.6 1014.5 0.2
29/12:30pm 21.0 15.5 5.8 37 7.6 SSW 24 33 13 18 1014.5 1014.4 0.2
29/12:00pm 21.2 16.0 7.4 41 7.1 SSW 24 37 13 20 1014.5 1014.4 0.0
29/11:30am 21.1 16.0 5.9 37 7.6 SSW 22 35 12 19 1014.2 1014.1 0.0
29/11:00am 19.7 14.9 5.8 40 6.9 S 20 28 11 15 1014.0 1013.9 0.0
29/10:30am 18.1 12.9 7.4 49 5.4 SSW 24 35 13 19 1014.0 1013.9 0.0
29/10:00am 18.6 13.7 6.8 46 5.9 SSW 22 37 12 20 1013.8 1013.7 0.0
29/09:30am 17.2 12.8 8.9 58 4.3 SSW 22 32 12 17 1013.8 1013.7 0.0
29/09:00am 16.3 12.2 8.5 60 4.0 SW 20 30 11 16 1013.3 1013.2 0.0
29/08:30am 14.6 11.6 11.8 83 1.5 SW 19 22 10 12 1013.4 1013.3 0.0
29/08:00am 15.2 11.2 10.5 73 2.5 SW 22 30 12 16 1012.9 1012.8 0.0
29/07:30am 14.5 11.2 9.5 72 2.6 SW 17 20 9 11 1012.0 1011.8 0.0
29/07:00am 14.6 11.0 9.8 73 2.5 SW 19 26 10 14 1011.6 1011.4 0.0
29/06:30am 13.9 11.7 9.4 74 2.3 SSW 11 13 6 7 1011.0 1010.9 0.0
29/06:00am 13.7 11.1 9.4 75 2.2 SW 13 17 7 9 1010.9 1010.8 0.0
29/05:30am 13.6 9.6 9.1 74 2.3 SW 20 24 11 13 1010.3 1010.2 0.0
29/05:00am 14.0 8.6 9.5 74 2.3 SW 28 39 15 21 1009.9 1009.8 0.0
29/04:30am 14.2 8.9 10.0 76 2.2 SW 28 37 15 20 1009.5 1009.4 0.0
29/04:00am 14.3 8.7 10.3 77 2.1 SW 30 39 16 21 1009.3 1009.2 0.0
29/03:44am 14.5 8.9 10.1 75 2.3 SW 30 48 16 26 1009.1 1009.0 0.0
29/03:30am 14.5 9.3 10.1 75 2.3 SW 28 39 15 21 1008.8 1008.7 0.0
29/03:01am 15.0 8.7 10.9 76 2.2 SW 35 54 19 29 1008.9 1008.8 0.0
29/03:00am 15.0 8.3 10.9 76 2.2 SW 37 54 20 29 1009.0 1008.9 0.0
29/02:30am 15.3 9.0 11.0 75 2.3 SW 35 46 19 25 1008.7 1008.6 0.0
29/02:00am 15.9 10.2 11.3 74 2.5 SW 32 43 17 23 1008.7 1008.6 0.0
29/01:30am 16.0 10.3 11.8 76 2.3 SW 33 44 18 24 1008.6 1008.5 0.0
29/01:12am 16.2 10.4 12.6 79 2.0 SW 35 54 19 29 1008.3 1008.2 0.0
29/01:00am 16.4 10.3 13.0 80 1.9 SW 37 52 20 28 1008.2 1008.1 0.0
29/12:53am 16.8 11.1 13.1 79 2.1 SW 35 52 19 28 1007.9 1007.8 0.0
29/12:30am 17.3 13.0 13.2 77 2.3 WSW 28 37 15 20 1007.9 1007.8 0.0
29/12:00am 17.5 11.8 12.9 74 2.6 WSW 35 48 19 26 1008.1 1008.0 0.0
 
Date/Time
CDT
Temp
°C
App
Temp
°C
Dew
Point
°C
Rel
Hum
%
Delta-T
°C
Wind Press
QNH
hPa
Press
MSL
hPa
Rain since
9am
mm
Dir  Spd
km/h
Gust
km/h
Spd
kts
Gust
kts
28/11:41pm 17.9 13.8 13.7 76 2.4 WSW 28 48 15 26 1007.3 1007.2 0.0
28/11:30pm 18.1 14.5 14.1 77 2.3 WSW 26 33 14 18 1007.4 1007.3 0.0
28/11:00pm 18.3 15.2 14.5 78 2.2 WSW 24 35 13 19 1007.6 1007.5 0.0
28/10:30pm 18.3 15.1 15.4 83 1.7 WSW 26 35 14 19 1007.6 1007.5 0.0
28/10:09pm 17.5 14.8 15.5 88 1.2 SW 24 32 13 17 1007.0 1006.9 0.0
28/10:00pm 17.4 14.6 15.4 88 1.2 SW 24 37 13 20 1006.9 1006.8 0.0
28/09:59pm 17.4 14.5 15.2 87 1.3 SW 24 37 13 20 1006.9 1006.8 0.0
28/09:30pm 17.2 13.6 14.1 82 1.8 SW 26 35 14 19 1005.4 1005.3 0.0
28/09:00pm 17.9 13.2 14.4 80 2.0 WSW 32 43 17 23 1005.8 1005.7 0.0
28/08:30pm 19.2 13.4 12.8 66 3.6 SW 35 46 19 25 1004.4 1004.3 0.0
28/08:00pm 19.8 13.6 12.5 62 4.1 SW 37 52 20 28 1003.6 1003.5 0.0
28/07:30pm 20.0 13.6 13.2 65 3.9 SW 39 52 21 28 1003.2 1003.1 0.0
28/07:00pm 20.1 14.8 14.1 68 3.5 SW 35 48 19 26 1001.9 1001.8 0.0
28/06:30pm 21.7 17.2 12.6 56 5.2 SSW 28 41 15 22 1000.5 1000.4 0.0
28/06:11pm 24.1 18.6 9.0 38 8.2 SSW 28 39 15 21 1000.1 1000.0 0.0
28/06:00pm 26.5 25.0 9.1 33 9.6 WSW 7 17 4 9 999.9 999.8 0.0
28/05:41pm 24.6 19.8 9.0 37 8.4 SSW 24 43 13 23 999.1 999.0 0.0
28/05:30pm 23.6 18.9 10.5 43 7.3 SSW 26 41 14 22 1001.0 1000.9 0.0
28/05:23pm 23.8 18.2 10.3 42 7.4 SW 30 41 16 22 1001.8 1001.7 0.0
28/05:00pm 25.0 16.8 10.5 40 8.1 SW 44 57 24 31 1002.8 1002.7 0.0
28/04:30pm 27.4 19.7 10.2 34 9.7 SW 41 46 22 25 1001.9 1001.8 0.0
28/04:00pm 28.9 22.8 11.7 34 10.0 SW 35 43 19 23 1001.2 1001.1 0.0
28/03:30pm 30.1 24.8 11.1 31 11.0 SW 30 39 16 21 1001.3 1001.2 0.0
28/03:00pm 31.4 27.1 10.7 28 12.0 SSW 24 35 13 19 1001.7 1001.6 0.0
28/02:30pm 28.2 24.5 11.4 35 9.7 SSW 22 30 12 16 1002.1 1002.0 0.0
28/02:00pm 29.0 23.6 10.9 32 10.3 SW 30 39 16 21 1002.7 1002.6 0.0
28/01:30pm 29.6 25.3 12.0 33 10.3 SSW 26 39 14 21 1003.1 1003.0 0.0
28/01:00pm 29.5 24.5 10.9 31 10.7 SSW 28 41 15 22 1003.3 1003.2 0.0
28/12:30pm 28.1 24.2 12.2 37 9.3 SW 24 39 13 21 1003.9 1003.8 0.0
28/12:00pm 27.4 22.6 13.0 41 8.5 SW 30 37 16 20 1004.3 1004.2 0.0
28/11:30am 26.9 22.5 12.9 42 8.2 SW 28 39 15 21 1004.4 1004.3 0.0
28/11:00am 24.9 20.3 13.5 49 6.7 SW 30 37 16 20 1004.8 1004.7 0.0
28/10:30am 24.2 20.8 13.6 51 6.2 SW 24 35 13 19 1004.7 1004.6 0.0
28/10:00am 23.3 18.7 15.1 60 4.9 SW 33 43 18 23 1005.1 1005.0 0.0
28/09:30am 22.2 17.9 15.5 66 4.0 SSW 32 43 17 23 1005.0 1004.9 0.0
28/09:00am 22.6 19.7 15.1 62 4.5 SSW 24 32 13 17 1004.7 1004.6 0.0
28/08:30am 20.2 16.1 15.9 76 2.6 SW 32 39 17 21 1004.8 1004.7 0.0
28/08:00am 19.5 16.7 14.3 72 3.0 SW 22 26 12 14 1004.0 1003.9 0.0
28/07:30am 19.0 18.3 14.4 74 2.7 SSE 11 15 6 8 1003.7 1003.6 0.0
28/07:00am 17.5 17.0 13.8 79 2.1 SSE 9 11 5 6 1003.4 1003.3 0.0
28/06:30am 15.3 14.7 12.4 83 1.6 NW 7 9 4 5 1003.2 1003.1 0.0
28/06:00am 15.4 15.0 12.5 83 1.6 NNW 6 7 3 4 1002.9 1002.8 0.0
28/05:30am 15.0 13.4 12.8 87 1.2 NNW 13 17 7 9 1002.7 1002.6 0.0
28/05:00am 14.8 13.7 13.2 90 0.9 N 11 13 6 7 1002.7 1002.6 0.0
28/04:30am 16.6 16.6 14.3 86 1.3 W 7 13 4 7 1003.7 1003.6 0.0
28/04:00am 16.6 16.3 14.5 87 1.2 WSW 9 11 5 6 1004.5 1004.4 0.0
28/03:30am 16.8 15.2 15.1 90 1.0 SW 17 20 9 11 1005.0 1004.9 0.0
28/03:00am 16.6 15.0 15.1 91 0.9 SW 17 24 9 13 1005.4 1005.3 0.0
28/02:30am 17.0 16.6 15.3 90 1.0 SSW 11 17 6 9 1006.1 1006.0 0.0
28/02:00am 17.4 16.3 15.4 88 1.2 SW 15 20 8 11 1006.6 1006.5 0.0
28/01:30am 17.9 16.5 15.5 86 1.4 SW 17 24 9 13 1007.1 1007.0 0.0
28/01:00am 18.3 16.0 15.6 84 1.6 SW 22 32 12 17 1007.2 1007.1 0.0
28/12:30am 19.1 14.8 15.4 79 2.2 SW 32 43 17 23 1006.8 1006.7 0.0
28/12:00am 20.4 15.5 12.4 60 4.5 SW 30 39 16 21 1006.8 1006.7 0.0
 
Date/Time
CDT
Temp
°C
App
Temp
°C
Dew
Point
°C
Rel
Hum
%
Delta-T
°C
Wind Press
QNH
hPa
Press
MSL
hPa
Rain since
9am
mm
Dir  Spd
km/h
Gust
km/h
Spd
kts
Gust
kts
27/11:30pm 23.0 19.1 10.8 46 6.8 SSW 22 33 12 18 1006.7 1006.6 0.0
27/11:00pm 20.4 20.3 10.9 54 5.2 WSW 2 9 1 5 1006.2 1006.1 0.0
27/10:30pm 20.8 19.9 10.6 52 5.6 WSW 6 6 3 3 1006.5 1006.4 0.0
27/10:00pm 22.8 21.5 11.4 48 6.4 WSW 9 11 5 6 1006.6 1006.5 0.0
27/09:30pm 23.2 22.0 11.7 48 6.5 SW 9 13 5 7 1006.5 1006.4 0.0
27/09:00pm 23.5 22.8 11.4 46 6.8 SSE 6 7 3 4 1006.6 1006.5 0.0
27/08:30pm 25.3 24.1 11.6 42 7.8 SSE 9 13 5 7 1006.5 1006.4 0.0
27/08:00pm 27.4 25.6 10.9 35 9.4 SSE 11 15 6 8 1006.3 1006.2 0.0
27/07:30pm 30.3 28.1 10.9 30 11.2 S 13 19 7 10 1006.0 1005.9 0.0
27/07:00pm 31.5 28.3 11.3 29 11.8 SSW 19 24 10 13 1005.7 1005.6 0.0
27/06:30pm 32.4 29.5 12.4 29 11.9 SSW 19 24 10 13 1005.7 1005.6 0.0
27/06:00pm 33.0 29.7 12.9 29 12.1 SSW 22 30 12 16 1005.6 1005.5 0.0
27/05:30pm 34.6 30.7 13.2 27 13.0 SSW 26 33 14 18 1005.5 1005.4 0.0
27/05:00pm 36.6 31.2 11.0 21 15.2 SSW 30 39 16 21 1005.7 1005.6 0.0
27/04:30pm 37.5 31.8 11.2 20 15.7 SSW 32 41 17 22 1005.9 1005.8 0.0
27/04:00pm 40.2 34.7 9.1 15 18.2 WSW 28 52 15 28 1006.1 1006.0 0.0
27/03:30pm 41.8 33.5 0.0 7 21.6 W 33 52 18 28 1006.2 1006.1 0.0
27/03:29pm 41.9 33.5 -0.7 7 21.7 W 33 52 18 28 1006.2 1006.1 0.0
27/03:00pm 41.3 33.5 -0.6 7 21.4 W 30 43 16 23 1006.6 1006.5 0.0
27/02:30pm 42.0 33.7 -1.5 6 22.0 WNW 32 44 17 24 1007.0 1006.9 0.0
27/02:03pm 41.3 32.6 -3.5 6 21.8 WNW 33 52 18 28 1007.3 1007.2 0.0
27/02:00pm 42.0 33.2 -3.9 5 22.4 WNW 33 46 18 25 1007.3 1007.2 0.0
27/01:30pm 41.9 32.9 -3.0 6 22.2 WNW 35 54 19 29 1007.6 1007.5 0.0
27/01:28pm 42.1 33.2 -1.7 6 22.0 W 35 54 19 29 1007.6 1007.5 0.0
27/01:00pm 41.6 34.3 -0.2 7 21.5 WNW 28 43 15 23 1007.8 1007.7 0.0
27/12:34pm 41.7 32.9 -1.5 7 21.8 WNW 35 59 19 32 1007.8 1007.7 0.0
27/12:30pm 41.7 33.9 2.9 9 20.9 NW 33 48 18 26 1008.1 1008.0 0.0
27/12:00pm 41.4 32.7 2.0 9 20.9 NW 37 54 20 29 1008.1 1008.0 0.0
27/11:30am 40.4 31.2 1.4 9 20.4 NW 39 56 21 30 1008.4 1008.3 0.0
27/11:01am 40.5 32.1 5.4 12 19.5 NNW 39 57 21 31 1008.6 1008.5 0.0
27/11:00am 40.6 31.9 6.0 12 19.4 NNW 41 57 22 31 1008.6 1008.5 0.0
27/10:53am 39.8 31.3 5.2 12 19.1 NNW 39 57 21 31 1008.7 1008.6 0.0
27/10:30am 39.7 30.9 5.7 12 18.9 NNW 41 52 22 28 1008.9 1008.8 0.0
27/10:00am 38.7 31.6 6.2 13 18.1 N 33 46 18 25 1009.0 1008.9 0.0
27/09:30am 37.0 28.5 5.2 14 17.3 N 39 48 21 26 1009.1 1009.0 0.0
27/09:02am 35.7 29.4 5.5 15 16.4 N 28 46 15 25 1009.4 1009.3 0.0
27/09:00am 34.9 29.4 5.8 16 15.8 NNE 24 46 13 25 1009.4 1009.3 0.0
27/08:30am 29.3 25.4 8.7 27 11.4 NNE 19 20 10 11 1009.5 1009.4 0.0
27/08:00am 25.5 21.6 8.5 34 9.2 NNE 19 20 10 11 1009.5 1009.4 0.0
27/07:30am 21.7 19.5 9.4 45 6.6 NNE 11 15 6 8 1009.6 1009.5 0.0
27/07:00am 17.0 16.3 11.3 69 3.1 N 6 9 3 5 1009.7 1009.6 0.0
27/06:30am 14.2 13.4 11.0 81 1.7 NNW 6 7 3 4 1009.6 1009.5 0.0
27/06:00am 13.5 11.7 10.8 84 1.4 NNW 11 13 6 7 1009.5 1009.4 0.0
27/05:30am 13.6 11.8 10.7 82 1.5 NNW 11 13 6 7 1009.7 1009.6 0.0
27/05:00am 13.5 11.2 10.4 81 1.6 NNW 13 15 7 8 1009.8 1009.7 0.0
27/04:30am 12.9 12.5 9.6 80 1.7 N 2 9 1 5 1010.0 1009.9 0.0
27/04:00am 13.4 11.7 9.9 79 1.8 NNW 9 11 5 6 1010.2 1010.1 0.0
27/03:30am 14.0 12.8 10.2 78 2.0 NW 7 9 4 5 1010.3 1010.2 0.0
27/03:00am 13.8 12.5 9.9 77 2.0 NNW 7 9 4 5 1010.7 1010.6 0.0
27/02:30am 13.3 11.2 9.6 78 1.9 NNW 11 15 6 8 1010.8 1010.7 0.0
27/02:00am 13.7 11.7 10.2 79 1.8 NNW 11 13 6 7 1011.4 1011.2 0.0
27/01:30am 13.4 13.5 10.1 80 1.7 CALM 0 0 0 0 1012.0 1011.8 0.0
27/01:00am 13.9 14.1 10.7 81 1.7 CALM 0 0 0 0 1012.2 1012.0 0.0
27/12:30am 13.5 13.6 10.2 80 1.7 CALM 0 0 0 0 1012.7 1012.6 0.0
27/12:00am 15.1 14.3 11.2 77 2.1 SW 6 7 3 4 1013.4 1013.3 0.0
 
Date/Time
CDT
Temp
°C
App
Temp
°C
Dew
Point
°C
Rel
Hum
%
Delta-T
°C
Wind Press
QNH
hPa
Press
MSL
hPa
Rain since
9am
mm
Dir  Spd
km/h
Gust
km/h
Spd
kts
Gust
kts
26/11:30pm 15.5 14.7 11.2 75 2.3 SW 6 9 3 5 1013.4 1013.3 0.0
26/11:00pm 15.8 14.9 11.5 75 2.3 SW 7 11 4 6 1013.8 1013.7 0.0
26/10:30pm 16.4 14.4 11.6 73 2.6 WSW 13 17 7 9 1013.9 1013.8 0.0
26/10:00pm 16.9 14.5 11.4 70 3.0 WSW 15 20 8 11 1014.2 1014.1 0.0
26/09:30pm 17.4 14.3 11.5 68 3.2 SW 19 22 10 12 1014.3 1014.2 0.0
26/09:00pm 17.8 15.5 11.8 68 3.3 SW 15 19 8 10 1014.3 1014.2 0.0
26/08:30pm 18.5 15.9 12.0 66 3.6 SW 17 22 9 12 1014.1 1014.0 0.0
26/08:00pm 19.2 15.8 11.4 60 4.3 SW 20 28 11 15 1014.0 1013.9 0.0
26/07:30pm 20.6 16.9 11.4 55 5.1 SW 22 28 12 15 1013.6 1013.5 0.0
26/07:00pm 22.2 18.0 11.0 49 6.2 SW 24 30 13 16 1013.4 1013.3 0.0
26/06:30pm 22.9 19.1 11.0 47 6.6 SSW 22 28 12 15 1013.3 1013.2 0.0
26/06:00pm 24.8 21.5 10.9 41 7.8 SSW 19 26 10 14 1012.9 1012.8 0.0
26/05:30pm 25.0 21.5 10.9 41 7.9 S 20 28 11 15 1013.0 1012.9 0.0
26/05:00pm 24.9 20.6 10.8 41 7.9 SSW 24 33 13 18 1013.2 1013.1 0.0
26/04:30pm 26.2 22.6 10.5 37 8.8 SSW 20 26 11 14 1013.0 1012.9 0.0
26/04:00pm 26.2 22.2 10.5 37 8.8 S 22 30 12 16 1013.3 1013.2 0.0

Other formats

Comma delimited format used in spreadsheet applications
http://www.bom.gov.au/fwo/IDS60801/IDS60801.95818.axf

JavaScript Object Notation format (JSON) in row-major order
http://www.bom.gov.au/fwo/IDS60801/IDS60801.95818.json

Data quality

Most of these data are generated automatically and are frequently updated. Quality checks on data are not normally performed. It is possible for incorrect values to appear. Refer to information at About Latest Weather Observations and please check the disclaimer before using these data.